Time;durP1;ratioP1;P1;durP2;ratioP2;P2;SDS_P1;SDS_P2;PMS_P1;PMS_P2;Temp;Humidity;BMP_temperature;BMP_pressure;BME280_temperature;BME280_humidity;BME280_pressure;Samples;Min_cycle;Max_cycle;Signal;HPM_P1;HPM_P2
2021/09/20 00:01:07;;;;;;;;;;;;;;;21.55;42.08;101835.66;4966369;28;19925;-86
2021/09/20 00:03:32;;;;;;;;;;;;;;;21.06;43.29;101840.31;4966901;28;20402;-86
2021/09/20 00:05:58;;;;;;;;;;;;;;;21.35;42.69;101837.22;4967513;28;19918;-86
2021/09/20 00:08:23;;;;;;;;;;;;;;;20.91;43.13;101850.63;4967633;28;19933;-87
2021/09/20 00:10:50;;;;;;;;;;;;;;;21.32;42.92;101841.06;4968672;28;19924;-87
2021/09/20 00:13:16;;;;;;;;;;;;;;;20.81;43.94;101844.06;4968566;28;19914;-86
2021/09/20 00:15:41;;;;;;;;;;;;;;;21.41;42.36;101844.97;4966893;28;19934;-86
2021/09/20 00:18:06;;;;;;;;;;;;;;;21.69;41.45;101846.47;4964995;28;19933;-87
2021/09/20 00:20:31;;;;;;;;;;;;;;;21.91;41.11;101845.66;4965250;28;20009;-87
2021/09/20 00:22:57;;;;;;;;;;;;;;;21.76;41.28;101846.88;4965520;28;20394;-87
2021/09/20 00:25:22;;;;;;;;;;;;;;;21.62;41.59;101849.81;4964690;28;19922;-87
2021/09/20 00:27:47;;;;;;;;;;;;;;;21.61;41.66;101856.34;4982096;28;19941;-86
2021/09/20 00:30:13;;;;;;;;;;;;;;;21.21;42.06;101847.41;4964038;28;19953;-87
2021/09/20 00:32:38;;;;;;;;;;;;;;;20.75;42.58;101848.13;4963085;28;19972;-87
2021/09/20 00:35:05;;;;;;;;;;;;;;;21.63;40.71;101854.34;4963461;28;19918;-87
2021/09/20 00:37:30;;;;;;;;;;;;;;;21.04;42.11;101856.94;4964340;28;19918;-88
2021/09/20 00:39:55;;;;;;;;;;;;;;;20.56;43.03;101848.59;4983762;28;19926;-87
2021/09/20 00:42:21;;;;;;;;;;;;;;;21.55;41.04;101855.81;4966304;28;19925;-87
2021/09/20 00:44:46;;;;;;;;;;;;;;;21.15;41.35;101858.00;4964519;28;19925;-87
2021/09/20 00:47:11;;;;;;;;;;;;;;;20.84;41.74;101857.56;4964364;28;19918;-87
2021/09/20 00:49:38;;;;;;;;;;;;;;;21.84;39.80;101851.75;4964382;28;19950;-86
2021/09/20 00:52:03;;;;;;;;;;;;;;;22.36;38.45;101854.97;4965699;28;19929;-87
2021/09/20 00:54:28;;;;;;;;;;;;;;;22.27;38.77;101854.69;4966753;28;20435;-87
2021/09/20 00:56:54;;;;;;;;;;;;;;;21.53;39.87;101857.81;4966715;28;19918;-87
2021/09/20 00:59:20;;;;;;;;;;;;;;;21.76;39.75;101864.25;4967048;28;19918;-87
2021/09/20 01:01:45;;;;;;;;;;;;;;;21.73;39.79;101863.66;4964727;28;19913;-86
2021/09/20 01:04:11;;;;;;;;;;;;;;;22.36;38.42;101868.75;4966163;28;19920;-87
2021/09/20 01:06:36;;;;;;;;;;;;;;;21.55;39.70;101869.59;4965667;28;19965;-86
2021/09/20 01:09:02;;;;;;;;;;;;;;;21.10;41.17;101868.47;4966328;28;19930;-87
2021/09/20 01:11:27;;;;;;;;;;;;;;;21.47;40.34;101872.03;4966508;28;19918;-87
2021/09/20 01:13:52;;;;;;;;;;;;;;;21.25;40.60;101873.66;4965485;28;19922;-87
2021/09/20 01:16:17;;;;;;;;;;;;;;;21.25;40.43;101868.16;4965485;28;19921;-87
2021/09/20 01:18:43;;;;;;;;;;;;;;;21.15;40.77;101869.91;4965623;28;19922;-86
2021/09/20 01:21:08;;;;;;;;;;;;;;;21.22;40.31;101868.41;4964721;28;19925;-87
2021/09/20 01:23:33;;;;;;;;;;;;;;;20.95;41.00;101865.88;4964435;28;19961;-87
2021/09/20 01:25:59;;;;;;;;;;;;;;;21.09;40.79;101870.38;4965033;28;19922;-86
2021/09/20 01:28:24;;;;;;;;;;;;;;;21.39;39.90;101864.38;4966024;28;19922;-87
2021/09/20 01:30:49;;;;;;;;;;;;;;;21.12;40.42;101864.63;4966123;28;20344;-87
2021/09/20 01:33:14;;;;;;;;;;;;;;;20.73;40.97;101860.25;4964118;28;19981;-87
2021/09/20 01:35:40;;;;;;;;;;;;;;;21.34;39.75;101863.84;4965259;28;19914;-86
2021/09/20 01:38:05;;;;;;;;;;;;;;;21.71;38.71;101865.63;4964828;28;19926;-87
2021/09/20 01:40:31;;;;;;;;;;;;;;;21.26;39.33;101863.56;4964698;28;20422;-88
2021/09/20 01:42:56;;;;;;;;;;;;;;;22.22;37.43;101862.47;4968395;28;20332;-87
2021/09/20 01:45:24;;;;;;;;;;;;;;;21.91;38.20;101864.94;4971303;28;19918;-87
2021/09/20 01:47:50;;;;;;;;;;;;;;;20.29;40.99;101874.38;4971660;28;19918;-87
2021/09/20 01:50:15;;;;;;;;;;;;;;;20.87;40.49;101871.97;4972352;28;19922;-87
2021/09/20 01:52:41;;;;;;;;;;;;;;;20.95;40.33;101865.88;4972007;28;19925;-86
2021/09/20 01:55:07;;;;;;;;;;;;;;;21.66;39.00;101867.88;4968819;28;19925;-87
2021/09/20 01:57:33;;;;;;;;;;;;;;;20.98;40.02;101862.03;4967594;28;19941;-87
2021/09/20 01:59:58;;;;;;;;;;;;;;;20.59;40.79;101867.59;4985211;28;20368;-87
2021/09/20 02:02:23;;;;;;;;;;;;;;;20.49;41.21;101864.66;4968042;28;20020;-88
2021/09/20 02:04:48;;;;;;;;;;;;;;;20.77;40.47;101870.88;4968021;28;19929;-86
2021/09/20 02:07:14;;;;;;;;;;;;;;;20.80;40.28;101867.91;4968947;28;19973;-88
2021/09/20 02:09:39;;;;;;;;;;;;;;;21.09;39.45;101872.22;4986866;28;19932;-88
2021/09/20 02:12:04;;;;;;;;;;;;;;;21.37;39.05;101876.50;4986971;28;19922;-87
2021/09/20 02:14:30;;;;;;;;;;;;;;;20.17;41.31;101873.38;4969154;28;19944;-86
2021/09/20 02:16:55;;;;;;;;;;;;;;;21.01;39.95;101876.41;4953599;28;19973;-87
2021/09/20 02:19:20;;;;;;;;;;;;;;;21.09;39.70;101881.38;4969550;28;19919;-87
2021/09/20 02:21:46;;;;;;;;;;;;;;;21.03;39.50;101879.06;4969296;28;19919;-87
2021/09/20 02:24:11;;;;;;;;;;;;;;;20.83;39.88;101886.06;4969183;28;19925;-86
2021/09/20 02:26:36;;;;;;;;;;;;;;;21.05;39.18;101888.09;4968508;28;20048;-88
2021/09/20 02:29:02;;;;;;;;;;;;;;;21.03;39.61;101884.56;4968731;28;19977;-87
2021/09/20 02:31:28;;;;;;;;;;;;;;;21.11;39.44;101893.13;4969049;28;19918;-87
2021/09/20 02:33:53;;;;;;;;;;;;;;;21.08;39.55;101887.84;4968721;28;19972;-88
2021/09/20 02:36:18;;;;;;;;;;;;;;;21.42;38.94;101894.41;4965337;28;19918;-87
2021/09/20 02:38:43;;;;;;;;;;;;;;;21.13;39.60;101890.25;4962302;28;20051;-87
2021/09/20 02:41:09;;;;;;;;;;;;;;;21.15;39.69;101891.00;4962265;28;19925;-86
2021/09/20 02:43:34;;;;;;;;;;;;;;;20.12;42.57;101894.81;4980456;28;19918;-87
2021/09/20 02:46:06;;;;;;;;;;;;;;;21.00;40.74;101902.19;4962433;28;19925;-88
2021/09/20 02:48:31;;;;;;;;;;;;;;;20.37;42.09;101904.06;4963455;28;19925;-87
2021/09/20 02:50:56;;;;;;;;;;;;;;;20.80;41.32;101900.03;4963095;28;19918;-87
2021/09/20 02:53:22;;;;;;;;;;;;;;;21.09;40.44;101905.22;4968019;28;20063;-87
2021/09/20 02:55:47;;;;;;;;;;;;;;;21.63;39.17;101904.78;4965271;28;20396;-87
2021/09/20 02:58:13;;;;;;;;;;;;;;;21.53;39.40;101904.63;4967318;28;19929;-87
2021/09/20 03:00:38;;;;;;;;;;;;;;;21.44;39.61;101910.81;4984283;28;20260;-88
2021/09/20 03:03:05;;;;;;;;;;;;;;;21.74;38.81;101909.44;4967349;28;19918;-87
2021/09/20 03:05:31;;;;;;;;;;;;;;;21.18;39.54;101921.03;4968166;28;19918;-87
2021/09/20 03:07:56;;;;;;;;;;;;;;;22.26;37.83;101924.59;4967456;28;19926;-87
2021/09/20 03:10:21;;;;;;;;;;;;;;;22.39;37.69;101931.91;4985050;28;19982;-88
2021/09/20 03:12:47;;;;;;;;;;;;;;;21.43;38.90;101931.06;4966656;28;19941;-88
2021/09/20 03:15:12;;;;;;;;;;;;;;;21.48;39.31;101944.50;4967351;28;19928;-87
2021/09/20 03:17:37;;;;;;;;;;;;;;;20.78;40.08;101951.53;4966644;28;19924;-87
2021/09/20 03:20:03;;;;;;;;;;;;;;;20.54;40.81;101942.16;4984117;28;19961;-87
2021/09/20 03:22:28;;;;;;;;;;;;;;;20.26;41.46;101939.66;4966814;28;19918;-87
2021/09/20 03:24:54;;;;;;;;;;;;;;;20.02;41.79;101943.16;4967074;28;19925;-88
2021/09/20 03:27:19;;;;;;;;;;;;;;;20.35;40.92;101942.63;4984477;28;19919;-87
2021/09/20 03:29:44;;;;;;;;;;;;;;;20.22;41.47;101938.13;4966086;28;20062;-88
2021/09/20 03:32:10;;;;;;;;;;;;;;;20.18;40.89;101932.84;4966397;28;19918;-88
2021/09/20 03:34:35;;;;;;;;;;;;;;;20.21;41.40;101933.63;4967330;28;19960;-88
2021/09/20 03:37:00;;;;;;;;;;;;;;;20.69;40.16;101925.59;4967700;28;19943;-87
2021/09/20 03:39:25;;;;;;;;;;;;;;;20.23;40.96;101926.13;4988116;28;19973;-87
2021/09/20 03:41:51;;;;;;;;;;;;;;;20.02;41.46;101937.69;4969397;28;19918;-87
2021/09/20 03:44:16;;;;;;;;;;;;;;;19.79;42.17;101926.44;4968361;28;19922;-87
2021/09/20 03:46:41;;;;;;;;;;;;;;;19.65;42.01;101934.69;4969274;28;19918;-86
2021/09/20 03:49:07;;;;;;;;;;;;;;;20.36;40.13;101936.13;4969861;28;19918;-86
2021/09/20 03:51:32;;;;;;;;;;;;;;;21.11;38.75;101937.16;4971655;28;19925;-87
2021/09/20 03:53:57;;;;;;;;;;;;;;;20.01;40.67;101939.53;4972133;28;19925;-88
2021/09/20 03:56:23;;;;;;;;;;;;;;;20.48;40.04;101941.75;4972648;28;20383;-86
2021/09/20 03:58:48;;;;;;;;;;;;;;;20.48;39.74;101950.00;4973010;28;19973;-85
2021/09/20 04:01:13;;;;;;;;;;;;;;;21.13;38.62;101950.78;4972297;28;20587;-85
2021/09/20 04:03:39;;;;;;;;;;;;;;;21.11;38.63;101961.06;4969776;28;20268;-86
2021/09/20 04:06:04;;;;;;;;;;;;;;;20.51;39.71;101969.88;4971515;28;19918;-85
2021/09/20 04:08:29;;;;;;;;;;;;;;;19.90;40.15;101960.47;4972390;28;19965;-85
2021/09/20 04:10:57;;;;;;;;;;;;;;;19.72;41.59;101971.72;4973607;28;19923;-86
2021/09/20 04:13:23;;;;;;;;;;;;;;;20.44;39.66;101970.44;4973818;28;19918;-85
2021/09/20 04:15:49;;;;;;;;;;;;;;;19.65;41.44;101968.50;4973945;28;19941;-85
2021/09/20 04:18:14;;;;;;;;;;;;;;;20.05;41.12;101967.69;4971905;28;20005;-86
2021/09/20 04:20:39;;;;;;;;;;;;;;;20.47;40.21;101959.22;4972130;28;20425;-86
2021/09/20 04:23:05;;;;;;;;;;;;;;;20.48;39.70;101963.75;4972005;28;19919;-85
2021/09/20 04:25:30;;;;;;;;;;;;;;;20.09;41.08;101971.94;4990933;28;19924;-85
2021/09/20 04:27:55;;;;;;;;;;;;;;;18.73;43.80;101975.44;4989205;28;19918;-86
2021/09/20 04:30:21;;;;;;;;;;;;;;;19.16;43.20;101981.91;4969660;28;19953;-84
2021/09/20 04:32:46;;;;;;;;;;;;;;;19.28;42.69;101983.84;4955625;28;19945;-86
2021/09/20 04:35:15;;;;;;;;;;;;;;;19.90;41.59;101988.84;4973860;28;19925;-85
2021/09/20 04:37:41;;;;;;;;;;;;;;;19.66;42.00;101985.88;4972155;28;19918;-84
2021/09/20 04:40:07;;;;;;;;;;;;;;;18.94;42.77;101994.28;4972262;28;20387;-84
2021/09/20 04:42:32;;;;;;;;;;;;;;;19.23;42.72;102002.47;4989432;28;19918;-86
2021/09/20 04:44:58;;;;;;;;;;;;;;;19.06;41.98;101998.09;4973445;28;19918;-85
2021/09/20 04:47:23;;;;;;;;;;;;;;;19.40;41.95;102002.25;4973308;28;19918;-84
2021/09/20 04:49:49;;;;;;;;;;;;;;;19.69;41.12;102007.63;4972861;28;20009;-84
2021/09/20 04:52:14;;;;;;;;;;;;;;;19.09;42.02;102015.22;4972003;28;19918;-83
2021/09/20 04:54:39;;;;;;;;;;;;;;;19.41;41.55;102011.34;4971972;28;20500;-84
2021/09/20 04:57:05;;;;;;;;;;;;;;;19.65;41.01;102008.81;4970811;28;19921;-84
2021/09/20 04:59:30;;;;;;;;;;;;;;;19.09;42.21;102008.88;4971836;28;19918;-84
2021/09/20 05:01:55;;;;;;;;;;;;;;;19.76;40.51;102014.47;4972527;28;20384;-85
2021/09/20 05:04:21;;;;;;;;;;;;;;;18.62;43.40;102021.88;4966035;28;19921;-84
2021/09/20 05:06:46;;;;;;;;;;;;;;;18.49;43.49;102021.75;4964879;28;19973;-84
2021/09/20 05:09:11;;;;;;;;;;;;;;;18.45;43.29;102022.94;4963527;28;19922;-85
2021/09/20 05:11:37;;;;;;;;;;;;;;;19.75;40.65;102015.44;4964536;28;19964;-83
2021/09/20 05:14:03;;;;;;;;;;;;;;;19.97;40.30;102019.50;4981029;28;19922;-85
2021/09/20 05:16:29;;;;;;;;;;;;;;;18.85;42.34;102025.91;4965958;28;19925;-85
2021/09/20 05:18:54;;;;;;;;;;;;;;;20.57;39.00;102028.19;4965439;28;19954;-86
2021/09/20 05:21:19;;;;;;;;;;;;;;;20.56;38.57;102023.66;4966369;28;20085;-87
2021/09/20 05:23:46;;;;;;;;;;;;;;;19.58;40.31;102030.31;4964998;28;19937;-85
2021/09/20 05:26:11;;;;;;;;;;;;;;;19.50;40.32;102031.81;4963342;28;20020;-85
2021/09/20 05:28:37;;;;;;;;;;;;;;;20.08;39.49;102035.25;4961520;28;19965;-88
2021/09/20 05:31:02;;;;;;;;;;;;;;;19.92;39.84;102036.31;4961958;28;19922;-87
2021/09/20 05:33:30;;;;;;;;;;;;;;;19.86;40.14;102041.34;4961801;28;19922;-88
2021/09/20 05:35:56;;;;;;;;;;;;;;;19.63;40.40;102049.22;4962599;28;19929;-87
2021/09/20 05:38:21;;;;;;;;;;;;;;;20.48;38.63;102044.31;4962458;28;19926;-88
2021/09/20 05:40:46;;;;;;;;;;;;;;;18.93;41.05;102048.25;4961750;28;20439;-86
2021/09/20 05:43:11;;;;;;;;;;;;;;;19.29;40.84;102049.59;4978660;28;19918;-85
2021/09/20 05:45:37;;;;;;;;;;;;;;;19.71;39.66;102049.59;4961902;28;20397;-87
2021/09/20 05:48:03;;;;;;;;;;;;;;;18.82;41.11;102060.84;4978504;28;19918;-87
2021/09/20 05:50:28;;;;;;;;;;;;;;;19.20;40.35;102058.41;4962007;28;19934;-87
2021/09/20 05:52:54;;;;;;;;;;;;;;;19.08;41.02;102065.59;4961387;28;19917;-86
2021/09/20 05:55:20;;;;;;;;;;;;;;;20.05;39.29;102068.41;4976906;28;19964;-85
2021/09/20 05:57:45;;;;;;;;;;;;;;;20.37;38.86;102063.47;4979177;28;19918;-87
2021/09/20 06:00:11;;;;;;;;;;;;;;;19.90;39.69;102067.59;4962113;28;19918;-86
2021/09/20 06:02:36;;;;;;;;;;;;;;;20.58;38.01;102060.16;4978604;28;19918;-87
2021/09/20 06:05:02;;;;;;;;;;;;;;;20.03;38.99;102068.53;4961026;28;19918;-88
2021/09/20 06:07:27;;;;;;;;;;;;;;;20.09;39.20;102073.59;4962252;28;19918;-88
2021/09/20 06:09:52;;;;;;;;;;;;;;;19.13;40.57;102077.13;4961753;28;19984;-87
2021/09/20 06:12:19;;;;;;;;;;;;;;;19.88;39.82;102083.31;4960852;28;19965;-88
2021/09/20 06:14:44;;;;;;;;;;;;;;;19.74;39.78;102089.69;4978818;28;19918;-86
2021/09/20 06:17:10;;;;;;;;;;;;;;;19.56;40.35;102083.56;4961967;28;20391;-86
2021/09/20 06:19:35;;;;;;;;;;;;;;;19.84;39.60;102085.38;4962598;28;20000;-85
2021/09/20 06:22:00;;;;;;;;;;;;;;;20.17;39.41;102084.97;4981929;28;19925;-86
2021/09/20 06:24:25;;;;;;;;;;;;;;;20.48;38.53;102082.81;4965205;28;19986;-87
2021/09/20 06:26:51;;;;;;;;;;;;;;;19.34;41.17;102089.56;4964204;28;19925;-86
2021/09/20 06:29:16;;;;;;;;;;;;;;;19.42;40.66;102093.56;4968769;28;19928;-87
2021/09/20 06:31:41;;;;;;;;;;;;;;;19.57;40.68;102099.06;4969823;28;19918;-88
2021/09/20 06:34:06;;;;;;;;;;;;;;;19.73;39.96;102099.81;4965255;28;20024;-86
2021/09/20 06:36:32;;;;;;;;;;;;;;;19.92;39.84;102095.84;4985036;28;19914;-85
2021/09/20 06:38:57;;;;;;;;;;;;;;;19.51;41.43;102097.59;4965751;28;20348;-87
2021/09/20 06:41:23;;;;;;;;;;;;;;;20.13;39.96;102090.78;4965135;28;20102;-85
2021/09/20 06:43:48;;;;;;;;;;;;;;;21.21;37.54;102099.69;4964462;28;19988;-88
2021/09/20 06:46:13;;;;;;;;;;;;;;;21.48;37.30;102098.66;4982222;28;19953;-87
2021/09/20 06:48:40;;;;;;;;;;;;;;;21.47;37.17;102097.81;4963803;28;20402;-87
2021/09/20 06:51:05;;;;;;;;;;;;;;;20.19;39.57;102102.22;4980772;28;19961;-88
2021/09/20 06:53:30;;;;;;;;;;;;;;;20.50;39.41;102097.34;4964209;28;19925;-88
2021/09/20 06:55:56;;;;;;;;;;;;;;;21.53;36.92;102102.88;4965219;28;19914;-86
2021/09/20 06:58:21;;;;;;;;;;;;;;;20.99;38.05;102100.41;4964542;28;19918;-87
2021/09/20 07:00:46;;;;;;;;;;;;;;;21.29;36.54;102099.13;4965600;28;20372;-86
2021/09/20 07:03:12;;;;;;;;;;;;;;;20.25;38.76;102102.78;4966580;28;20375;-86
2021/09/20 07:05:38;;;;;;;;;;;;;;;21.08;36.93;102107.97;4965367;28;19942;-86
2021/09/20 07:08:03;;;;;;;;;;;;;;;21.69;35.76;102104.50;4981698;28;19926;-87
2021/09/20 07:10:29;;;;;;;;;;;;;;;20.83;37.10;102093.22;4981660;28;19964;-84
2021/09/20 07:12:54;;;;;;;;;;;;;;;21.66;35.78;102093.69;4982201;28;20415;-87
2021/09/20 07:15:19;;;;;;;;;;;;;;;20.90;35.72;102099.19;4982339;28;19914;-86
2021/09/20 07:17:44;;;;;;;;;;;;;;;20.78;36.26;102100.94;4984224;28;19918;-87
2021/09/20 07:20:10;;;;;;;;;;;;;;;20.21;38.04;102106.72;4968469;28;20288;-86
2021/09/20 07:22:36;;;;;;;;;;;;;;;20.59;37.25;102108.69;4986699;28;19914;-86
2021/09/20 07:25:01;;;;;;;;;;;;;;;20.09;38.39;102117.56;4983739;28;19928;-87
2021/09/20 07:27:26;;;;;;;;;;;;;;;21.22;36.15;102115.22;4969927;28;19957;-86
2021/09/20 07:29:51;;;;;;;;;;;;;;;20.79;37.33;102119.19;4989000;28;19922;-83
2021/09/20 07:32:17;;;;;;;;;;;;;;;21.02;37.38;102127.69;4968276;28;19926;-85
2021/09/20 07:34:42;;;;;;;;;;;;;;;20.95;37.42;102127.22;4961010;28;19923;-87
2021/09/20 07:37:08;;;;;;;;;;;;;;;19.54;39.56;102129.44;4970050;28;20020;-89
2021/09/20 07:39:33;;;;;;;;;;;;;;;20.18;39.10;102133.44;4947277;29;19931;-87
2021/09/20 07:41:59;;;;;;;;;;;;;;;21.16;37.07;102135.81;4954891;28;19922;-89
2021/09/20 07:44:26;;;;;;;;;;;;;;;20.50;38.68;102137.69;4963499;28;20381;-89
2021/09/20 07:46:51;;;;;;;;;;;;;;;19.62;39.48;102147.16;4964511;28;20391;-87
2021/09/20 07:49:16;;;;;;;;;;;;;;;19.89;39.50;102143.63;4964815;28;19918;-88
2021/09/20 07:51:42;;;;;;;;;;;;;;;19.91;39.70;102143.53;4964147;28;19925;-88
2021/09/20 07:54:07;;;;;;;;;;;;;;;20.59;38.76;102138.94;4965139;28;20269;-88
2021/09/20 07:56:35;;;;;;;;;;;;;;;19.91;39.35;102154.50;4965742;28;19918;-88
2021/09/20 07:59:01;;;;;;;;;;;;;;;20.86;38.11;102148.03;4965494;28;19918;-87
2021/09/20 08:01:27;;;;;;;;;;;;;;;20.44;38.93;102152.75;4985676;28;19925;-86
2021/09/20 08:03:52;;;;;;;;;;;;;;;21.75;36.90;102162.75;4962942;28;19918;-87
2021/09/20 08:06:18;;;;;;;;;;;;;;;20.27;39.12;102158.53;4965006;28;19951;-88
2021/09/20 08:08:43;;;;;;;;;;;;;;;21.54;37.07;102165.22;4965449;28;20256;-88
2021/09/20 08:11:09;;;;;;;;;;;;;;;20.89;38.44;102153.31;4963978;28;20434;-87
2021/09/20 08:13:34;;;;;;;;;;;;;;;20.43;39.65;102163.88;4963775;28;19922;-87
2021/09/20 08:15:59;;;;;;;;;;;;;;;21.81;36.36;102157.78;4963522;28;20368;-87
2021/09/20 08:18:25;;;;;;;;;;;;;;;20.73;38.53;102166.38;4963292;28;19957;-88
2021/09/20 08:20:50;;;;;;;;;;;;;;;19.88;39.16;102177.56;4963028;28;20374;-85
2021/09/20 08:23:16;;;;;;;;;;;;;;;21.03;37.88;102173.44;4963309;28;19919;-87
2021/09/20 08:25:42;;;;;;;;;;;;;;;20.97;37.13;102171.13;4963864;28;20354;-90
2021/09/20 08:28:07;;;;;;;;;;;;;;;21.84;36.05;102176.84;4981614;28;19922;-86
2021/09/20 08:30:32;;;;;;;;;;;;;;;20.93;37.78;102186.13;4968455;28;19932;-86
2021/09/20 08:32:58;;;;;;;;;;;;;;;22.23;34.85;102189.50;4984927;28;19922;-89
2021/09/20 08:35:23;;;;;;;;;;;;;;;22.05;35.04;102175.22;4967822;28;19993;-92
2021/09/20 08:37:49;;;;;;;;;;;;;;;22.09;34.28;102182.28;4966893;28;19918;-91
2021/09/20 08:40:15;;;;;;;;;;;;;;;21.02;35.29;102197.34;4966148;28;20292;-91
2021/09/20 08:42:41;;;;;;;;;;;;;;;22.04;34.42;102194.63;4983260;28;20006;-88
2021/09/20 08:45:08;;;;;;;;;;;;;;;21.13;36.11;102199.31;4963511;28;20384;-89
2021/09/20 08:47:33;;;;;;;;;;;;;;;20.41;36.04;102202.44;4964352;28;19981;-88
2021/09/20 08:49:58;;;;;;;;;;;;;;;21.06;34.73;102198.91;4962832;28;19965;-88
2021/09/20 08:52:23;;;;;;;;;;;;;;;20.70;36.36;102191.34;4963969;28;19918;-87
2021/09/20 08:54:51;;;;;;;;;;;;;;;20.64;34.38;102198.13;4963783;28;19953;-89
2021/09/20 08:57:17;;;;;;;;;;;;;;;20.63;35.09;102195.47;4962414;28;19919;-89
2021/09/20 08:59:42;;;;;;;;;;;;;;;20.30;35.24;102205.91;4964924;28;19978;-90
2021/09/20 09:02:09;;;;;;;;;;;;;;;21.43;33.44;102195.38;4963831;28;19922;-88
2021/09/20 09:04:35;;;;;;;;;;;;;;;23.21;30.89;102204.97;4964174;28;20269;-89
2021/09/20 09:07:05;;;;;;;;;;;;;;;22.93;31.17;102204.41;4964589;28;19953;-90
2021/09/20 09:09:45;;;;;;;;;;;;;;;22.63;31.95;102203.03;4966101;28;19918;-89
2021/09/20 09:12:13;;;;;;;;;;;;;;;23.99;29.61;102203.28;4965177;28;19965;-90
2021/09/20 09:14:43;;;;;;;;;;;;;;;22.69;31.31;102204.44;4965172;28;19922;-89
2021/09/20 09:17:10;;;;;;;;;;;;;;;22.33;32.13;102200.75;4965291;28;19918;-89
2021/09/20 09:19:41;;;;;;;;;;;;;;;21.86;32.43;102203.28;4964434;28;19921;-89
2021/09/20 09:22:06;;;;;;;;;;;;;;;22.33;32.10;102206.25;4966282;28;19918;-88
2021/09/20 09:24:31;;;;;;;;;;;;;;;21.52;32.87;102205.75;4965479;28;19914;-88
2021/09/20 09:26:58;;;;;;;;;;;;;;;23.46;30.37;102200.22;4965451;28;19925;-90
2021/09/20 09:29:23;;;;;;;;;;;;;;;22.31;32.76;102213.75;4965006;28;19996;-88
2021/09/20 09:31:53;;;;;;;;;;;;;;;21.63;33.75;102212.34;4983163;28;19922;-88
2021/09/20 09:34:24;;;;;;;;;;;;;;;22.88;32.35;102211.25;4965571;28;19918;-88
2021/09/20 09:36:49;;;;;;;;;;;;;;;21.15;34.84;102210.22;4965453;28;19976;-89
2021/09/20 09:39:25;;;;;;;;;;;;;;;22.55;32.43;102211.00;4965812;28;19934;-88
2021/09/20 09:41:51;;;;;;;;;;;;;;;22.46;32.58;102218.13;4965602;28;19930;-89
2021/09/20 09:44:16;;;;;;;;;;;;;;;22.29;33.09;102210.22;4965860;28;20279;-90
2021/09/20 09:46:42;;;;;;;;;;;;;;;21.89;33.39;102224.19;4967146;28;19914;-90
2021/09/20 09:49:15;;;;;;;;;;;;;;;23.70;30.79;102217.59;4960997;28;19950;-87
2021/09/20 09:51:59;;;;;;;;;;;;;;;21.66;34.49;102220.41;4959022;28;19930;-88
2021/09/20 09:54:29;;;;;;;;;;;;;;;23.26;32.08;102219.28;4972442;28;19922;-88
2021/09/20 09:57:13;;;;;;;;;;;;;;;24.18;30.36;102221.09;4953613;29;19919;-91
2021/09/20 09:59:39;;;;;;;;;;;;;;;22.96;31.93;102219.81;4943913;29;19923;-89
2021/09/20 10:02:15;;;;;;;;;;;;;;;23.47;31.25;102233.25;4942661;29;19966;-89
2021/09/20 10:04:55;;;;;;;;;;;;;;;23.19;31.16;102229.09;4949085;29;19919;-91
2021/09/20 10:07:21;;;;;;;;;;;;;;;23.17;31.41;102231.06;4955626;29;19918;-90
2021/09/20 10:09:47;;;;;;;;;;;;;;;23.53;31.32;102231.88;4950308;29;19919;-92
2021/09/20 10:12:12;;;;;;;;;;;;;;;22.75;32.42;102225.13;4957204;29;19985;-91
2021/09/20 10:14:38;;;;;;;;;;;;;;;23.25;31.98;102228.59;4959804;29;19953;-91
2021/09/20 10:17:05;;;;;;;;;;;;;;;23.93;30.56;102217.63;4948948;29;19928;-91
2021/09/20 10:19:31;;;;;;;;;;;;;;;22.74;32.68;102220.63;4945189;29;19915;-92
2021/09/20 10:21:56;;;;;;;;;;;;;;;23.36;32.14;102228.59;4943887;29;19941;-92
2021/09/20 10:24:21;;;;;;;;;;;;;;;24.03;31.12;102232.41;4944260;29;19915;-91
2021/09/20 10:26:46;;;;;;;;;;;;;;;23.94;30.86;102233.16;4943979;29;19934;-91
2021/09/20 10:29:16;;;;;;;;;;;;;;;24.22;31.24;102236.41;4942958;29;19930;-88
2021/09/20 10:31:41;;;;;;;;;;;;;;;23.81;31.61;102222.22;4941976;29;19938;-91
2021/09/20 10:34:19;;;;;;;;;;;;;;;23.75;31.21;102232.88;4942471;28;19922;-90
2021/09/20 10:36:46;;;;;;;;;;;;;;;23.56;32.43;102234.41;4941034;29;19918;-91
2021/09/20 10:39:11;;;;;;;;;;;;;;;23.76;31.15;102234.66;4939573;29;19934;-91
2021/09/20 10:41:37;;;;;;;;;;;;;;;24.13;30.95;102231.66;4939987;29;19915;-91
2021/09/20 10:44:11;;;;;;;;;;;;;;;23.85;31.15;102229.31;4943700;29;19942;-90
2021/09/20 10:46:41;;;;;;;;;;;;;;;24.52;29.88;102226.53;4944239;29;19919;-90
2021/09/20 10:49:17;;;;;;;;;;;;;;;23.61;31.65;102220.22;4940984;29;19911;-90
2021/09/20 10:51:54;;;;;;;;;;;;;;;24.64;29.96;102225.53;4940604;29;19919;-90
2021/09/20 10:54:22;;;;;;;;;;;;;;;24.10;30.96;102227.25;4942271;29;19949;-89
2021/09/20 10:56:51;;;;;;;;;;;;;;;22.70;32.02;102221.84;4941030;29;19918;-88
2021/09/20 10:59:17;;;;;;;;;;;;;;;24.15;30.66;102224.09;4941267;29;20396;-91
2021/09/20 11:01:43;;;;;;;;;;;;;;;23.01;32.21;102221.22;4940358;29;19926;-91
2021/09/20 11:04:16;;;;;;;;;;;;;;;22.54;32.35;102220.28;4940281;29;19919;-90
2021/09/20 11:06:43;;;;;;;;;;;;;;;24.88;29.02;102222.50;4940286;29;19926;-89
2021/09/20 11:09:08;;;;;;;;;;;;;;;24.88;28.28;102228.06;4941633;29;19927;-91
2021/09/20 11:11:43;;;;;;;;;;;;;;;25.25;26.70;102219.25;4940917;29;19926;-92
2021/09/20 11:14:19;;;;;;;;;;;;;;;25.20;27.21;102227.13;4958940;28;19919;-88
2021/09/20 11:16:47;;;;;;;;;;;;;;;26.79;25.41;102220.13;4963837;28;19966;-90
2021/09/20 11:19:25;;;;;;;;;;;;;;;25.77;25.94;102230.38;4963456;29;19919;-85
2021/09/20 11:22:02;;;;;;;;;;;;;;;23.87;28.87;102237.47;4963065;28;19989;-86
2021/09/20 11:24:28;;;;;;;;;;;;;;;25.42;26.62;102230.78;4961985;29;19940;-86
2021/09/20 11:26:53;;;;;;;;;;;;;;;25.05;27.34;102229.34;4961817;29;20431;-90
2021/09/20 11:29:22;;;;;;;;;;;;;;;25.55;27.07;102236.09;4976251;28;19989;-89
2021/09/20 11:31:48;;;;;;;;;;;;;;;25.73;26.59;102228.91;4964384;28;19926;-88
2021/09/20 11:34:25;;;;;;;;;;;;;;;24.76;28.00;102238.28;4963726;28;19922;-87
2021/09/20 11:36:51;;;;;;;;;;;;;;;24.19;28.25;102242.22;4984255;28;20418;-87
2021/09/20 11:39:19;;;;;;;;;;;;;;;25.58;26.90;102235.84;4983233;28;19926;-88
2021/09/20 11:41:46;;;;;;;;;;;;;;;25.00;27.35;102244.59;4965371;28;19921;-89
2021/09/20 11:44:13;;;;;;;;;;;;;;;25.18;27.34;102240.19;4966025;28;19918;-87
2021/09/20 11:46:38;;;;;;;;;;;;;;;24.16;28.81;102248.88;4967092;28;19960;-92
2021/09/20 11:49:13;;;;;;;;;;;;;;;24.75;28.04;102244.81;4965598;28;19922;-90
2021/09/20 11:51:51;;;;;;;;;;;;;;;24.86;27.73;102246.66;4965805;28;19907;-91
2021/09/20 11:54:26;;;;;;;;;;;;;;;26.25;26.00;102241.81;4951360;28;19910;-91
2021/09/20 11:56:52;;;;;;;;;;;;;;;25.31;26.90;102242.81;4967247;28;19956;-89
2021/09/20 11:59:18;;;;;;;;;;;;;;;25.37;27.12;102244.16;4966154;28;19922;-91
2021/09/20 12:01:43;;;;;;;;;;;;;;;27.21;24.24;102234.56;4963811;28;19953;-90
2021/09/20 12:04:08;;;;;;;;;;;;;;;26.54;25.89;102244.63;4968706;28;19929;-92
2021/09/20 12:06:33;;;;;;;;;;;;;;;25.89;26.18;102244.13;4966385;28;20013;-92
2021/09/20 12:09:00;;;;;;;;;;;;;;;26.70;25.63;102238.53;4965418;28;19930;-90
2021/09/20 12:11:26;;;;;;;;;;;;;;;27.11;24.51;102241.16;4965539;28;19942;-91
2021/09/20 12:13:51;;;;;;;;;;;;;;;25.87;26.39;102241.50;4965887;28;20197;-91
2021/09/20 12:16:17;;;;;;;;;;;;;;;25.16;27.21;102244.13;4965028;28;20162;-91
2021/09/20 12:18:42;;;;;;;;;;;;;;;23.73;29.70;102255.13;4965110;28;19918;-91
2021/09/20 12:21:10;;;;;;;;;;;;;;;24.54;28.49;102244.75;4966041;28;20386;-90
2021/09/20 12:23:36;;;;;;;;;;;;;;;24.01;29.24;102256.53;4966395;28;19914;-90
2021/09/20 12:26:02;;;;;;;;;;;;;;;23.36;29.91;102258.97;4969563;28;19924;-91
2021/09/20 12:28:37;;;;;;;;;;;;;;;24.65;28.26;102263.22;4968872;28;19961;-91
2021/09/20 12:31:07;;;;;;;;;;;;;;;24.71;28.15;102261.81;4966950;28;20283;-90